Terminal Aerodrome Forecast
Issued by NWS Raleigh/Durham, NC

Home | Current Version | Previous Version | Text Only | Print | Product List | Glossary On
Versions: 1 2 3 4 5 6 7 8 9 10 11 12 13 14 15 16 17 18 19 20 21 22 23 24 25 26 27 28 29 30
000
FTUS42 KRAH 241739
TAFRDU
TAF
KRDU 241739Z 2418/2518 19004KT P6SM SCT035 SCT250
     FM250000 19004KT P6SM SCT100 SCT200
      TEMPO 2509/2512 3SM BR SCT015
     FM251500 22014G25KT P6SM BKN050=

USA.gov is the U.S. government's official web portal to all federal, state and local government web resources and services.